createdAt,value
2023-04-18T00:03:41.305Z,96529.97
2023-04-18T00:08:01.883Z,96524.00
2023-04-18T00:12:14.574Z,96527.16
2023-04-18T00:16:29.088Z,96505.25
2023-04-18T00:20:41.921Z,96514.63
2023-04-18T00:24:54.416Z,96525.47
2023-04-18T00:29:06.902Z,96513.97
2023-04-18T00:33:27.691Z,96522.16
2023-04-18T00:37:40.426Z,96525.13
2023-04-18T00:41:52.918Z,96517.34
2023-04-18T00:46:05.453Z,96516.00
2023-04-18T00:50:18.849Z,96509.13
2023-04-18T00:54:31.577Z,96519.31
2023-04-18T00:58:44.317Z,96519.38
2023-04-18T01:02:57.067Z,96501.50
2023-04-18T01:07:10.211Z,96520.03
2023-04-18T01:11:22.931Z,96519.16
2023-04-18T01:15:35.396Z,96513.81
2023-04-18T01:19:47.977Z,96521.63
2023-04-18T01:24:12.883Z,96517.81
2023-04-18T01:28:28.344Z,96508.97
2023-04-18T01:32:40.839Z,96507.91
2023-04-18T01:36:53.346Z,96506.72
2023-04-18T01:41:05.826Z,96515.38
2023-04-18T01:45:21.394Z,96509.31
2023-04-18T01:49:48.769Z,96513.09
2023-04-18T01:54:01.263Z,96501.63
2023-04-18T01:58:13.673Z,96502.97
2023-04-18T02:02:26.309Z,96496.47
2023-04-18T02:06:38.857Z,96502.19
2023-04-18T02:10:51.427Z,96504.06
2023-04-18T02:15:04.313Z,96513.84
2023-04-18T02:19:20.132Z,96512.66
2023-04-18T02:23:33.050Z,96516.22
2023-04-18T02:27:45.783Z,96509.72
2023-04-18T02:31:59.225Z,96474.66
2023-04-18T02:36:13.713Z,96511.06
2023-04-18T02:40:26.225Z,96509.47
2023-04-18T02:44:38.671Z,96506.31
2023-04-18T02:48:51.197Z,96511.19
2023-04-18T02:53:04.484Z,96510.91
2023-04-18T02:57:16.955Z,96514.19
2023-04-18T03:01:29.472Z,96489.75
2023-04-18T03:05:41.950Z,96512.03
2023-04-18T03:09:54.856Z,96514.56
2023-04-18T03:14:07.354Z,96513.44
2023-04-18T03:18:19.813Z,96507.19
2023-04-18T03:22:32.317Z,96502.13
2023-04-18T03:26:44.741Z,96491.75
2023-04-18T03:30:57.239Z,96496.03
2023-04-18T03:35:10.337Z,96502.03
2023-04-18T03:39:22.860Z,96497.59
2023-04-18T03:43:35.933Z,96494.50
2023-04-18T03:47:58.503Z,96493.38
2023-04-18T03:52:10.971Z,96506.31
2023-04-18T03:56:33.437Z,96498.88
2023-04-18T04:00:46.063Z,96514.53
2023-04-18T04:04:58.769Z,96505.47
2023-04-18T04:09:11.853Z,96512.31
2023-04-18T04:13:24.440Z,96501.13
2023-04-18T04:17:37.335Z,96492.22
2023-04-18T04:21:49.876Z,96473.00
2023-04-18T04:26:05.388Z,96500.44
2023-04-18T04:30:17.813Z,96507.69
2023-04-18T04:34:30.209Z,96504.59
2023-04-18T04:38:42.737Z,96505.91
2023-04-18T04:42:55.247Z,96515.03
2023-04-18T04:47:14.454Z,96518.66
2023-04-18T04:51:28.760Z,96500.66
2023-04-18T04:55:42.127Z,96519.19
2023-04-18T04:59:54.578Z,96510.84
2023-04-18T05:04:07.293Z,96517.19
2023-04-18T05:08:19.860Z,96507.16
2023-04-18T05:12:32.480Z,96520.72
2023-04-18T05:16:56.662Z,96519.53
2023-04-18T05:21:09.173Z,96512.66
2023-04-18T05:25:21.793Z,96513.94
2023-04-18T05:29:35.060Z,96521.38
2023-04-18T05:33:47.545Z,96519.28
2023-04-18T05:38:00.158Z,96515.72
2023-04-18T05:42:12.641Z,96506.34
2023-04-18T05:46:25.131Z,96521.00
2023-04-18T05:50:37.698Z,96516.88
2023-04-18T05:54:50.208Z,96523.16
2023-04-18T05:59:02.679Z,96536.25
2023-04-18T06:03:15.424Z,96538.09
2023-04-18T06:07:28.021Z,96538.47
2023-04-18T06:11:40.511Z,96540.00
2023-04-18T06:15:53.153Z,96539.31
2023-04-18T06:20:07.063Z,96541.44
2023-04-18T06:24:19.554Z,96542.13
2023-04-18T06:28:32.004Z,96546.81
2023-04-18T06:32:44.550Z,96542.09
2023-04-18T06:36:57.291Z,96559.81
2023-04-18T06:41:19.714Z,96542.44
2023-04-18T06:45:32.415Z,96552.97
2023-04-18T06:49:44.894Z,96552.91
2023-04-18T06:53:57.427Z,96552.13
2023-04-18T06:58:10.865Z,96559.25
2023-04-18T07:02:23.455Z,96556.25
2023-04-18T07:06:37.249Z,96557.34
2023-04-18T07:10:49.676Z,96563.13
2023-04-18T07:15:02.222Z,96567.47
2023-04-18T07:19:23.969Z,96557.97
2023-04-18T07:23:37.183Z,96559.78
2023-04-18T07:27:51.120Z,96563.63
2023-04-18T07:32:04.473Z,96564.63
2023-04-18T07:36:17.698Z,96563.88
2023-04-18T07:40:30.190Z,96574.59
2023-04-18T07:44:42.718Z,96568.06
2023-04-18T07:48:55.438Z,96574.56
2023-04-18T07:53:09.076Z,96571.16
2023-04-18T07:57:21.657Z,96582.00
2023-04-18T08:01:34.538Z,96580.94
2023-04-18T08:05:47.036Z,96581.41
2023-04-18T08:10:09.709Z,96585.41
2023-04-18T08:14:22.138Z,96588.34
2023-04-18T08:18:34.602Z,96598.34
2023-04-18T08:23:05.173Z,96586.03
2023-04-18T08:27:19.301Z,96575.88
2023-04-18T08:31:33.499Z,96594.19
2023-04-18T08:35:45.986Z,96592.84
2023-04-18T08:39:58.431Z,96593.09
2023-04-18T08:44:10.898Z,96592.81
2023-04-18T08:48:23.826Z,96590.50
2023-04-18T08:52:50.358Z,96607.09
2023-04-18T08:57:07.002Z,96603.13
2023-04-18T09:01:19.528Z,96608.78
2023-04-18T09:05:36.409Z,96611.88
2023-04-18T09:09:54.460Z,96619.72
2023-04-18T09:14:06.928Z,96611.72
2023-04-18T09:18:19.366Z,96615.53
2023-04-18T09:22:58.585Z,96613.66
2023-04-18T09:27:16.230Z,96605.41
2023-04-18T09:32:02.194Z,96609.19
2023-04-18T09:36:22.809Z,96617.72
2023-04-18T09:40:35.453Z,96616.78
2023-04-18T09:45:07.070Z,96619.44
2023-04-18T09:49:19.662Z,96625.22
2023-04-18T09:53:32.566Z,96616.41
2023-04-18T09:57:49.104Z,96608.97
2023-04-18T10:02:04.453Z,96617.72
2023-04-18T10:06:18.137Z,96624.75
2023-04-18T10:10:31.114Z,96620.63
2023-04-18T10:14:44.587Z,96609.13
2023-04-18T10:18:57.348Z,96596.69
2023-04-18T10:23:39.880Z,96615.78
2023-04-18T10:28:04.053Z,96594.97
2023-04-18T10:32:21.279Z,96605.53
2023-04-18T10:37:06.820Z,96604.13
2023-04-18T10:41:28.283Z,96608.41
2023-04-18T10:45:40.790Z,96604.28
2023-04-18T10:50:06.807Z,96598.63
2023-04-18T10:54:58.436Z,96607.97
2023-04-18T10:59:13.105Z,96594.91
2023-04-18T11:03:35.659Z,96595.53
2023-04-18T11:07:49.759Z,96595.66
2023-04-18T11:12:11.856Z,96578.03
2023-04-18T11:16:33.296Z,96584.75
2023-04-18T11:20:51.873Z,96581.81
2023-04-18T11:25:15.039Z,96593.16
2023-04-18T11:29:28.504Z,96590.31
2023-04-18T11:33:41.143Z,96591.00
2023-04-18T11:37:55.433Z,96575.03
2023-04-18T11:42:08.018Z,96566.81
2023-04-18T11:46:20.549Z,96592.34
2023-04-18T11:50:37.910Z,96591.56
2023-04-18T11:54:51.853Z,96583.06
2023-04-18T11:59:10.578Z,96584.06
2023-04-18T12:03:23.653Z,96591.13
2023-04-18T12:07:45.346Z,96574.41
2023-04-18T12:12:03.450Z,96602.41
2023-04-18T12:16:15.945Z,96592.41
2023-04-18T12:20:46.672Z,96591.19
2023-04-18T12:25:27.305Z,96596.22
2023-04-18T12:29:40.619Z,96591.44
2023-04-18T12:33:53.069Z,96589.59
2023-04-18T12:38:05.782Z,96586.84
2023-04-18T12:42:18.291Z,96592.19
2023-04-18T12:46:36.453Z,96589.59
2023-04-18T12:50:55.642Z,96572.19
2023-04-18T12:55:09.667Z,96591.97
2023-04-18T12:59:32.095Z,96598.19
2023-04-18T13:03:46.753Z,96588.03
2023-04-18T13:12:18.927Z,96594.22
2023-04-18T13:16:31.992Z,96593.16
2023-04-18T13:20:54.691Z,96594.94
2023-04-18T13:25:11.138Z,96600.03
2023-04-18T13:29:23.770Z,96583.13
2023-04-18T13:33:36.171Z,96587.56
2023-04-18T13:37:48.680Z,96593.50
2023-04-18T13:42:03.719Z,96590.66
2023-04-18T13:46:16.439Z,96592.50
2023-04-18T13:50:28.987Z,96600.94
2023-04-18T13:54:42.216Z,96594.22
2023-04-18T13:58:55.329Z,96594.81
2023-04-18T14:03:07.936Z,96594.03
2023-04-18T14:07:20.496Z,96600.03
2023-04-18T14:11:32.994Z,96604.50
2023-04-18T14:15:45.472Z,96613.25
2023-04-18T14:19:57.988Z,96610.31
2023-04-18T14:24:10.428Z,96589.25
2023-04-18T14:28:25.771Z,96612.25
2023-04-18T14:32:38.266Z,96611.31
2023-04-18T14:36:50.808Z,96617.75
2023-04-18T14:41:07.909Z,96609.13
2023-04-18T14:45:20.492Z,96609.09
2023-04-18T14:49:32.947Z,96617.72
2023-04-18T14:53:45.825Z,96623.16
2023-04-18T14:57:58.371Z,96624.91
2023-04-18T15:02:12.898Z,96624.38
2023-04-18T15:06:25.483Z,96630.69
2023-04-18T15:10:39.448Z,96625.78
2023-04-18T15:14:52.345Z,96633.69
2023-04-18T15:19:04.791Z,96630.59
2023-04-18T15:23:17.360Z,96639.53
2023-04-18T15:27:30.644Z,96637.88
2023-04-18T15:31:43.202Z,96630.41
2023-04-18T15:35:56.780Z,96633.50
2023-04-18T15:40:12.006Z,96644.59
2023-04-18T15:44:24.519Z,96635.13
2023-04-18T15:48:46.991Z,96638.66
2023-04-18T15:52:59.454Z,96639.66
2023-04-18T15:57:12.581Z,96645.25
2023-04-18T16:01:25.180Z,96632.22
2023-04-18T16:05:37.753Z,96643.53
2023-04-18T16:09:50.311Z,96642.41
2023-04-18T16:14:02.757Z,96649.34
2023-04-18T16:18:15.177Z,96632.47
2023-04-18T16:22:27.694Z,96641.06
2023-04-18T16:26:40.189Z,96644.44
2023-04-18T16:30:54.820Z,96632.63
2023-04-18T16:35:10.963Z,96637.09
2023-04-18T16:39:23.567Z,96642.09
2023-04-18T16:43:46.128Z,96644.13
2023-04-18T16:47:58.620Z,96648.34
2023-04-18T16:52:11.135Z,96645.09
2023-04-18T16:56:23.691Z,96654.91
2023-04-18T17:00:38.782Z,96652.72
2023-04-18T17:04:51.551Z,96649.53
2023-04-18T17:09:06.932Z,96653.25
2023-04-18T17:13:19.525Z,96657.47
2023-04-18T17:17:32.114Z,96661.75
2023-04-18T17:21:44.928Z,96658.16
2023-04-18T17:25:57.473Z,96666.72
2023-04-18T17:30:10.711Z,96665.19
2023-04-18T17:34:23.229Z,96661.88
2023-04-18T17:38:37.567Z,96657.66
2023-04-18T17:42:50.040Z,96653.78
2023-04-18T17:47:02.886Z,96660.41
2023-04-18T17:51:17.064Z,96667.09
2023-04-18T17:55:29.542Z,96668.94
2023-04-18T17:59:46.785Z,96673.03
2023-04-18T18:03:59.480Z,96671.91
2023-04-18T18:08:22.808Z,96677.53
2023-04-18T18:12:36.966Z,96679.72
2023-04-18T18:16:49.609Z,96680.59
2023-04-18T18:21:02.140Z,96686.13
2023-04-18T18:25:14.897Z,96683.41
2023-04-18T18:29:36.057Z,96685.59
2023-04-18T18:33:54.717Z,96696.66
2023-04-18T18:38:07.266Z,96704.22
2023-04-18T18:47:01.371Z,96705.66
2023-04-18T18:51:13.867Z,96722.38
2023-04-18T18:55:26.286Z,96719.28
2023-04-18T18:59:38.892Z,96693.88
2023-04-18T19:03:51.599Z,96720.16
2023-04-18T19:08:05.695Z,96732.56
2023-04-18T19:12:18.582Z,96733.91
2023-04-18T19:16:31.465Z,96735.31
2023-04-18T19:20:43.940Z,96747.69
2023-04-18T19:24:56.470Z,96748.47
2023-04-18T19:29:14.843Z,96740.84
2023-04-18T19:33:35.967Z,96745.38
2023-04-18T19:37:48.615Z,96750.00
2023-04-18T19:42:02.671Z,96741.63
2023-04-18T19:46:15.352Z,96752.97
2023-04-18T19:50:28.005Z,96751.00
2023-04-18T19:54:40.475Z,96752.22
2023-04-18T19:58:52.967Z,96749.56
2023-04-18T20:03:05.997Z,96753.97
2023-04-18T20:07:18.575Z,96748.34
2023-04-18T20:11:30.968Z,96754.63
2023-04-18T20:15:43.535Z,96754.72
2023-04-18T20:19:57.881Z,96754.06
2023-04-18T20:24:10.514Z,96729.59
2023-04-18T20:28:22.967Z,96757.59
2023-04-18T20:32:35.531Z,96753.75
2023-04-18T20:36:48.021Z,96756.06
2023-04-18T20:41:01.501Z,96750.66
2023-04-18T20:45:14.479Z,96755.06
2023-04-18T20:49:27.850Z,96759.78
2023-04-18T20:53:40.243Z,96756.69
2023-04-18T20:57:52.697Z,96748.66
2023-04-18T21:02:15.469Z,96762.34
2023-04-18T21:06:29.185Z,96757.28
2023-04-18T21:10:41.774Z,96753.75
2023-04-18T21:14:54.305Z,96755.06
2023-04-18T21:19:07.631Z,96755.06
2023-04-18T21:23:20.348Z,96756.38
2023-04-18T21:27:32.815Z,96762.78
2023-04-18T21:31:46.015Z,96759.69
2023-04-18T21:35:58.505Z,96764.88
2023-04-18T21:40:11.465Z,96754.81
2023-04-18T21:44:23.954Z,96740.94
2023-04-18T21:48:36.829Z,96754.97
2023-04-18T21:52:49.356Z,96758.91
2023-04-18T21:57:03.343Z,96750.31
2023-04-18T22:01:15.925Z,96754.28
2023-04-18T22:05:29.509Z,96748.31
2023-04-18T22:09:45.505Z,96755.72
2023-04-18T22:13:58.798Z,96754.63
2023-04-18T22:18:14.932Z,96747.00
2023-04-18T22:22:27.536Z,96743.50
2023-04-18T22:26:40.792Z,96743.06
2023-04-18T22:30:53.298Z,96738.41
2023-04-18T22:35:07.382Z,96737.63
2023-04-18T22:39:19.850Z,96731.59
2023-04-18T22:43:33.277Z,96726.94
2023-04-18T22:47:46.160Z,96734.00
2023-04-18T22:51:59.365Z,96730.47
2023-04-18T22:56:12.216Z,96733.31
2023-04-18T23:00:24.770Z,96732.00
2023-04-18T23:04:43.184Z,96732.78
2023-04-18T23:08:55.677Z,96728.25
2023-04-18T23:13:18.156Z,96737.63
2023-04-18T23:17:30.634Z,96744.66
2023-04-18T23:21:43.177Z,96734.28
2023-04-18T23:26:16.361Z,96733.84
2023-04-18T23:30:28.804Z,96733.84
2023-04-18T23:34:41.429Z,96723.41
2023-04-18T23:39:03.238Z,96728.03
2023-04-18T23:43:16.104Z,96723.59
2023-04-18T23:47:30.817Z,96722.72
2023-04-18T23:51:43.337Z,96705.81
2023-04-18T23:56:06.291Z,96715.84
